sensor_id;sensor_type;location;lat;lon;timestamp;pressure;altitude;pressure_sealevel;temperature;humidity
7524;BME280;3803;51.666;7.630;2022-07-23T00:03:46;101272.16;;;19.36;60.55
7524;BME280;3803;51.666;7.630;2022-07-23T00:04:07;101262.44;;;19.33;60.59
7524;BME280;3803;51.666;7.630;2022-07-23T00:04:28;101264.22;;;19.29;60.90
7524;BME280;3803;51.666;7.630;2022-07-23T00:04:49;101262.47;;;19.30;61.00
7524;BME280;3803;51.666;7.630;2022-07-23T00:05:10;101257.16;;;19.30;61.28
7524;BME280;3803;51.666;7.630;2022-07-23T00:05:31;101264.22;;;19.31;61.53
7524;BME280;3803;51.666;7.630;2022-07-23T00:05:52;101260.69;;;19.26;61.72
7524;BME280;3803;51.666;7.630;2022-07-23T00:06:13;101252.75;;;19.23;61.70
7524;BME280;3803;51.666;7.630;2022-07-23T00:06:34;101258.91;;;19.28;61.97
7524;BME280;3803;51.666;7.630;2022-07-23T00:06:54;101264.22;;;19.31;61.78
7524;BME280;3803;51.666;7.630;2022-07-23T00:07:15;101258.91;;;19.28;61.93
7524;BME280;3803;51.666;7.630;2022-07-23T00:07:36;101253.63;;;19.28;61.86
7524;BME280;3803;51.666;7.630;2022-07-23T00:09:11;101253.63;;;19.25;62.52
7524;BME280;3803;51.666;7.630;2022-07-23T00:09:32;101262.44;;;19.28;62.53
7524;BME280;3803;51.666;7.630;2022-07-23T00:09:54;101249.22;;;19.22;62.70
7524;BME280;3803;51.666;7.630;2022-07-23T00:10:15;101248.34;;;19.25;62.67
7524;BME280;3803;51.666;7.630;2022-07-23T00:10:36;101259.81;;;19.24;62.66
7524;BME280;3803;51.666;7.630;2022-07-23T00:10:57;101258.91;;;19.23;62.96
7524;BME280;3803;51.666;7.630;2022-07-23T00:11:18;101236.88;;;19.10;63.19
7524;BME280;3803;51.666;7.630;2022-07-23T00:11:39;101258.91;;;19.17;63.68
7524;BME280;3803;51.666;7.630;2022-07-23T00:11:59;101241.31;;;19.14;63.85
7524;BME280;3803;51.666;7.630;2022-07-23T00:12:21;101254.50;;;19.24;63.91
7524;BME280;3803;51.666;7.630;2022-07-23T00:12:42;101244.81;;;19.23;64.09
7524;BME280;3803;51.666;7.630;2022-07-23T00:13:02;101236.88;;;19.21;64.20
7524;BME280;3803;51.666;7.630;2022-07-23T00:13:23;101256.28;;;19.29;64.27
7524;BME280;3803;51.666;7.630;2022-07-23T00:13:44;101248.34;;;19.31;64.58
7524;BME280;3803;51.666;7.630;2022-07-23T00:14:05;101247.44;;;19.30;64.74
7524;BME280;3803;51.666;7.630;2022-07-23T00:14:26;101237.75;;;19.26;64.80
7524;BME280;3803;51.666;7.630;2022-07-23T00:14:46;101243.03;;;19.32;65.13
7524;BME280;3803;51.666;7.630;2022-07-23T00:15:08;101243.94;;;19.30;65.05
7524;BME280;3803;51.666;7.630;2022-07-23T00:15:29;101226.28;;;19.26;65.02
7524;BME280;3803;51.666;7.630;2022-07-23T00:15:49;101228.03;;;19.25;65.22
7524;BME280;3803;51.666;7.630;2022-07-23T00:16:10;101227.16;;;19.28;64.97
7524;BME280;3803;51.666;7.630;2022-07-23T00:16:31;101224.50;;;19.22;65.11
7524;BME280;3803;51.666;7.630;2022-07-23T00:16:53;101223.63;;;19.26;64.85
7524;BME280;3803;51.666;7.630;2022-07-23T00:17:13;101224.53;;;19.25;65.05
7524;BME280;3803;51.666;7.630;2022-07-23T00:17:34;101222.75;;;19.27;65.12
7524;BME280;3803;51.666;7.630;2022-07-23T00:17:55;101234.19;;;19.29;65.01
7524;BME280;3803;51.666;7.630;2022-07-23T00:18:16;101214.81;;;19.27;65.16
7524;BME280;3803;51.666;7.630;2022-07-23T00:18:36;101207.78;;;19.23;65.56
7524;BME280;3803;51.666;7.630;2022-07-23T00:18:57;101221.88;;;19.28;65.21
7524;BME280;3803;51.666;7.630;2022-07-23T00:19:21;101228.94;;;19.26;65.36
7524;BME280;3803;51.666;7.630;2022-07-23T00:19:42;101223.63;;;19.29;65.47
7524;BME280;3803;51.666;7.630;2022-07-23T00:20:03;101206.00;;;19.18;65.33
7524;BME280;3803;51.666;7.630;2022-07-23T00:20:24;101206.00;;;19.22;65.37
7524;BME280;3803;51.666;7.630;2022-07-23T00:20:45;101206.00;;;19.22;65.47
7524;BME280;3803;51.666;7.630;2022-07-23T00:21:06;101218.34;;;19.26;65.69
7524;BME280;3803;51.666;7.630;2022-07-23T00:21:27;101206.00;;;19.18;65.60
7524;BME280;3803;51.666;7.630;2022-07-23T00:21:48;101211.28;;;19.22;65.63
7524;BME280;3803;51.666;7.630;2022-07-23T00:22:09;101211.28;;;19.25;65.79
7524;BME280;3803;51.666;7.630;2022-07-23T00:22:29;101204.25;;;19.24;65.60
7524;BME280;3803;51.666;7.630;2022-07-23T00:22:52;101206.88;;;19.22;65.59
7524;BME280;3803;51.666;7.630;2022-07-23T00:23:13;101203.38;;;19.20;65.75
7524;BME280;3803;51.666;7.630;2022-07-23T00:23:34;101195.44;;;19.14;65.88
7524;BME280;3803;51.666;7.630;2022-07-23T00:23:55;101192.78;;;19.15;65.74
7524;BME280;3803;51.666;7.630;2022-07-23T00:24:16;101205.13;;;19.20;65.82
7524;BME280;3803;51.666;7.630;2022-07-23T00:24:36;101198.97;;;19.14;65.71
7524;BME280;3803;51.666;7.630;2022-07-23T00:24:57;101198.97;;;19.14;65.77
7524;BME280;3803;51.666;7.630;2022-07-23T00:25:19;101193.69;;;19.14;65.91
7524;BME280;3803;51.666;7.630;2022-07-23T00:25:39;101194.53;;;19.13;65.91
7524;BME280;3803;51.666;7.630;2022-07-23T00:26:00;101198.94;;;19.17;66.08
7524;BME280;3803;51.666;7.630;2022-07-23T00:26:21;101188.38;;;19.11;66.00
7524;BME280;3803;51.666;7.630;2022-07-23T00:26:42;101193.66;;;19.11;66.04
7524;BME280;3803;51.666;7.630;2022-07-23T00:27:03;101186.63;;;19.10;66.00
7524;BME280;3803;51.666;7.630;2022-07-23T00:27:24;101193.69;;;19.14;66.00
7524;BME280;3803;51.666;7.630;2022-07-23T00:27:44;101193.69;;;19.14;66.08
7524;BME280;3803;51.666;7.630;2022-07-23T00:28:05;101191.91;;;19.10;66.05
7524;BME280;3803;51.666;7.630;2022-07-23T00:28:26;101183.09;;;19.08;66.27
7524;BME280;3803;51.666;7.630;2022-07-23T00:28:47;101179.53;;;19.00;66.08
7524;BME280;3803;51.666;7.630;2022-07-23T00:29:07;101190.16;;;19.06;66.05
7524;BME280;3803;51.666;7.630;2022-07-23T00:29:28;101192.78;;;19.09;66.16
7524;BME280;3803;51.666;7.630;2022-07-23T00:29:50;101184.84;;;19.03;66.18
7524;BME280;3803;51.666;7.630;2022-07-23T00:30:11;101183.06;;;19.02;66.18
7524;BME280;3803;51.666;7.630;2022-07-23T00:30:33;101186.59;;;19.01;66.28
7524;BME280;3803;51.666;7.630;2022-07-23T00:30:53;101188.38;;;18.99;66.13
7524;BME280;3803;51.666;7.630;2022-07-23T00:31:15;101191.88;;;19.01;66.18
7524;BME280;3803;51.666;7.630;2022-07-23T00:31:37;101182.19;;;18.97;66.11
7524;BME280;3803;51.666;7.630;2022-07-23T00:31:58;101186.59;;;18.99;66.35
7524;BME280;3803;51.666;7.630;2022-07-23T00:32:19;101186.56;;;18.98;66.15
7524;BME280;3803;51.666;7.630;2022-07-23T00:32:46;101195.41;;;19.00;66.32
7524;BME280;3803;51.666;7.630;2022-07-23T00:33:07;101193.66;;;18.99;66.20
7524;BME280;3803;51.666;7.630;2022-07-23T00:33:28;101179.56;;;18.90;66.03
7524;BME280;3803;51.666;7.630;2022-07-23T00:33:49;101191.00;;;18.94;66.21
7524;BME280;3803;51.666;7.630;2022-07-23T00:34:10;101192.75;;;18.94;66.36
7524;BME280;3803;51.666;7.630;2022-07-23T00:34:31;101195.41;;;18.92;66.33
7524;BME280;3803;51.666;7.630;2022-07-23T00:34:52;101173.38;;;18.84;66.18
7524;BME280;3803;51.666;7.630;2022-07-23T00:35:13;101191.91;;;18.91;66.36
7524;BME280;3803;51.666;7.630;2022-07-23T00:35:37;101198.91;;;18.89;66.55
7524;BME280;3803;51.666;7.630;2022-07-23T00:36:00;101194.53;;;18.88;66.60
7524;BME280;3803;51.666;7.630;2022-07-23T00:36:21;101198.91;;;18.89;66.42
7524;BME280;3803;51.666;7.630;2022-07-23T00:36:43;101199.81;;;18.88;66.62
7524;BME280;3803;51.666;7.630;2022-07-23T00:37:04;101183.09;;;18.83;66.51
7524;BME280;3803;51.666;7.630;2022-07-23T00:37:25;101203.34;;;18.89;66.41
7524;BME280;3803;51.666;7.630;2022-07-23T00:37:46;101194.53;;;18.88;66.61
7524;BME280;3803;51.666;7.630;2022-07-23T00:38:07;101189.22;;;18.84;66.79
7524;BME280;3803;51.666;7.630;2022-07-23T00:38:29;101191.88;;;18.88;66.66
7524;BME280;3803;51.666;7.630;2022-07-23T00:38:50;101198.91;;;18.89;66.89
7524;BME280;3803;51.666;7.630;2022-07-23T00:39:11;101199.81;;;18.88;66.73
7524;BME280;3803;51.666;7.630;2022-07-23T00:39:32;101199.81;;;18.91;66.73
7524;BME280;3803;51.666;7.630;2022-07-23T00:39:53;101199.81;;;18.91;66.78
7524;BME280;3803;51.666;7.630;2022-07-23T00:40:13;101189.25;;;18.87;66.90
7524;BME280;3803;51.666;7.630;2022-07-23T00:40:35;101194.53;;;18.90;66.77
7524;BME280;3803;51.666;7.630;2022-07-23T00:40:56;101188.38;;;18.83;66.95
7524;BME280;3803;51.666;7.630;2022-07-23T00:41:17;101186.59;;;18.85;67.04
7524;BME280;3803;51.666;7.630;2022-07-23T00:41:37;101203.34;;;18.90;67.07
7524;BME280;3803;51.666;7.630;2022-07-23T00:41:58;101197.16;;;18.88;67.04
7524;BME280;3803;51.666;7.630;2022-07-23T00:42:19;101197.16;;;18.88;67.19
7524;BME280;3803;51.666;7.630;2022-07-23T00:42:39;101187.47;;;18.86;67.21
7524;BME280;3803;51.666;7.630;2022-07-23T00:43:00;101195.41;;;18.87;67.22
7524;BME280;3803;51.666;7.630;2022-07-23T00:43:21;101197.16;;;18.88;67.25
7524;BME280;3803;51.666;7.630;2022-07-23T00:43:42;101195.41;;;18.87;67.14
7524;BME280;3803;51.666;7.630;2022-07-23T00:44:39;101200.69;;;18.87;67.33
7524;BME280;3803;51.666;7.630;2022-07-23T00:45:00;101205.97;;;18.87;67.40
7524;BME280;3803;51.666;7.630;2022-07-23T00:45:21;101197.19;;;18.82;67.37
7524;BME280;3803;51.666;7.630;2022-07-23T00:45:42;101195.41;;;18.78;67.22
7524;BME280;3803;51.666;7.630;2022-07-23T00:46:02;101197.19;;;18.76;67.25
7524;BME280;3803;51.666;7.630;2022-07-23T00:46:23;101198.94;;;18.75;67.21
7524;BME280;3803;51.666;7.630;2022-07-23T00:46:47;101193.63;;;18.74;67.71
7524;BME280;3803;51.666;7.630;2022-07-23T00:47:08;101200.69;;;18.75;67.35
7524;BME280;3803;51.666;7.630;2022-07-23T00:47:29;101188.34;;;18.71;67.34
7524;BME280;3803;51.666;7.630;2022-07-23T00:47:50;101205.97;;;18.78;67.58
7524;BME280;3803;51.666;7.630;2022-07-23T00:48:11;101197.16;;;18.73;67.57
7524;BME280;3803;51.666;7.630;2022-07-23T00:48:32;101194.53;;;18.71;67.53
7524;BME280;3803;51.666;7.630;2022-07-23T00:48:53;101191.88;;;18.70;67.75
7524;BME280;3803;51.666;7.630;2022-07-23T00:49:14;101191.88;;;18.70;67.58
7524;BME280;3803;51.666;7.630;2022-07-23T00:49:35;101194.53;;;18.71;67.60
7524;BME280;3803;51.666;7.630;2022-07-23T00:49:55;101202.44;;;18.73;67.68
7524;BME280;3803;51.666;7.630;2022-07-23T00:50:16;101190.09;;;18.66;67.95
7524;BME280;3803;51.666;7.630;2022-07-23T00:50:37;101196.28;;;18.69;67.72
7524;BME280;3803;51.666;7.630;2022-07-23T00:50:58;101191.00;;;18.63;67.65
7524;BME280;3803;51.666;7.630;2022-07-23T00:51:19;101193.63;;;18.64;67.80
7524;BME280;3803;51.666;7.630;2022-07-23T00:51:40;101183.06;;;18.58;68.00
7524;BME280;3803;51.666;7.630;2022-07-23T00:52:02;101200.66;;;18.53;68.13
7524;BME280;3803;51.666;7.630;2022-07-23T00:52:23;101202.41;;;18.53;68.42
7524;BME280;3803;51.666;7.630;2022-07-23T00:52:44;101195.41;;;18.55;68.13
7524;BME280;3803;51.666;7.630;2022-07-23T00:53:05;101196.28;;;18.58;68.14
7524;BME280;3803;51.666;7.630;2022-07-23T00:53:26;101202.44;;;18.60;67.90
7524;BME280;3803;51.666;7.630;2022-07-23T00:53:47;101207.72;;;18.60;67.99
7524;BME280;3803;51.666;7.630;2022-07-23T00:54:09;101205.06;;;18.62;68.07
7524;BME280;3803;51.666;7.630;2022-07-23T00:54:29;101207.72;;;18.63;68.07
7524;BME280;3803;51.666;7.630;2022-07-23T00:54:50;101198.03;;;18.56;67.84
7524;BME280;3803;51.666;7.630;2022-07-23T00:55:12;101198.03;;;18.59;67.93
7524;BME280;3803;51.666;7.630;2022-07-23T00:55:33;101206.84;;;18.61;67.85
7524;BME280;3803;51.666;7.630;2022-07-23T00:55:54;101205.06;;;18.57;67.69
7524;BME280;3803;51.666;7.630;2022-07-23T00:56:15;101208.59;;;18.61;67.95
7524;BME280;3803;51.666;7.630;2022-07-23T00:56:36;101205.94;;;18.56;67.95
7524;BME280;3803;51.666;7.630;2022-07-23T00:56:58;101206.84;;;18.58;67.95
7524;BME280;3803;51.666;7.630;2022-07-23T00:57:19;101212.13;;;18.60;68.05
7524;BME280;3803;51.666;7.630;2022-07-23T00:57:41;101202.41;;;18.57;68.13
7524;BME280;3803;51.666;7.630;2022-07-23T00:58:02;101202.44;;;18.54;68.04
7524;BME280;3803;51.666;7.630;2022-07-23T00:58:23;101205.09;;;18.56;68.11
7524;BME280;3803;51.666;7.630;2022-07-23T00:58:44;101216.53;;;18.59;68.03
7524;BME280;3803;51.666;7.630;2022-07-23T00:59:05;101199.78;;;18.51;68.07
7524;BME280;3803;51.666;7.630;2022-07-23T00:59:26;101214.78;;;18.58;67.97
7524;BME280;3803;51.666;7.630;2022-07-23T00:59:47;101219.16;;;18.56;68.09
7524;BME280;3803;51.666;7.630;2022-07-23T01:00:11;101218.28;;;18.57;68.11
7524;BME280;3803;51.666;7.630;2022-07-23T01:00:32;101209.44;;;18.49;68.17
7524;BME280;3803;51.666;7.630;2022-07-23T01:00:53;101209.44;;;18.49;68.25
7524;BME280;3803;51.666;7.630;2022-07-23T01:01:13;101213.88;;;18.48;67.94
7524;BME280;3803;51.666;7.630;2022-07-23T01:01:34;101215.63;;;18.49;68.19
7524;BME280;3803;51.666;7.630;2022-07-23T01:01:55;101213.88;;;18.47;68.06
7524;BME280;3803;51.666;7.630;2022-07-23T01:02:16;101207.69;;;18.45;68.21
7524;BME280;3803;51.666;7.630;2022-07-23T01:02:37;101212.97;;;18.42;67.98
7524;BME280;3803;51.666;7.630;2022-07-23T01:02:57;101214.75;;;18.43;68.15
7524;BME280;3803;51.666;7.630;2022-07-23T01:03:18;101219.13;;;18.42;68.26
7524;BME280;3803;51.666;7.630;2022-07-23T01:03:39;101220.88;;;18.42;68.05
7524;BME280;3803;51.666;7.630;2022-07-23T01:04:00;101214.75;;;18.43;68.15
7524;BME280;3803;51.666;7.630;2022-07-23T01:04:21;101215.59;;;18.39;68.06
7524;BME280;3803;51.666;7.630;2022-07-23T01:04:42;101221.78;;;18.39;68.11
7524;BME280;3803;51.666;7.630;2022-07-23T01:05:03;101218.25;;;18.43;68.04
7524;BME280;3803;51.666;7.630;2022-07-23T01:05:38;101219.16;;;18.39;68.28
7524;BME280;3803;51.666;7.630;2022-07-23T01:05:58;101213.88;;;18.39;68.38
7524;BME280;3803;51.666;7.630;2022-07-23T01:06:19;101216.50;;;18.42;68.12
7524;BME280;3803;51.666;7.630;2022-07-23T01:06:40;101207.69;;;18.35;67.97
7524;BME280;3803;51.666;7.630;2022-07-23T01:07:01;101209.44;;;18.36;68.18
7524;BME280;3803;51.666;7.630;2022-07-23T01:07:23;101208.53;;;18.34;68.08
7524;BME280;3803;51.666;7.630;2022-07-23T01:07:43;101219.13;;;18.42;68.08
7524;BME280;3803;51.666;7.630;2022-07-23T01:08:06;101219.16;;;18.44;68.35
7524;BME280;3803;51.666;7.630;2022-07-23T01:08:27;101210.31;;;18.39;68.31
7524;BME280;3803;51.666;7.630;2022-07-23T01:08:48;101226.19;;;18.48;68.15
7524;BME280;3803;51.666;7.630;2022-07-23T01:09:09;101216.47;;;18.41;68.21
7524;BME280;3803;51.666;7.630;2022-07-23T01:09:31;101220.03;;;18.44;68.28
7524;BME280;3803;51.666;7.630;2022-07-23T01:09:52;101205.06;;;18.40;68.30
7524;BME280;3803;51.666;7.630;2022-07-23T01:10:14;101204.16;;;18.36;68.42
7524;BME280;3803;51.666;7.630;2022-07-23T01:10:53;101202.38;;;18.42;68.24
7524;BME280;3803;51.666;7.630;2022-07-23T01:11:14;101211.19;;;18.41;68.30
7524;BME280;3803;51.666;7.630;2022-07-23T01:11:36;101207.69;;;18.42;68.50
7524;BME280;3803;51.666;7.630;2022-07-23T01:12:00;101210.34;;;18.45;68.49
7524;BME280;3803;51.666;7.630;2022-07-23T01:12:21;101202.44;;;18.46;68.41
7524;BME280;3803;51.666;7.630;2022-07-23T01:12:42;101205.94;;;18.44;68.52
7524;BME280;3803;51.666;7.630;2022-07-23T01:13:05;101195.34;;;18.41;68.41
7524;BME280;3803;51.666;7.630;2022-07-23T01:13:26;101198.91;;;18.46;68.64
7524;BME280;3803;51.666;7.630;2022-07-23T01:13:47;101203.31;;;18.48;68.48
7524;BME280;3803;51.666;7.630;2022-07-23T01:14:15;101204.16;;;18.49;68.38
7524;BME280;3803;51.666;7.630;2022-07-23T01:14:36;101195.34;;;18.45;68.39
7524;BME280;3803;51.666;7.630;2022-07-23T01:14:58;101201.56;;;18.47;68.54
7524;BME280;3803;51.666;7.630;2022-07-23T01:15:21;101199.75;;;18.48;68.47
7524;BME280;3803;51.666;7.630;2022-07-23T01:15:42;101202.44;;;18.51;68.55
7524;BME280;3803;51.666;7.630;2022-07-23T01:16:03;101207.72;;;18.51;68.56
7524;BME280;3803;51.666;7.630;2022-07-23T01:16:23;101199.75;;;18.48;68.51
7524;BME280;3803;51.666;7.630;2022-07-23T01:16:46;101204.19;;;18.52;68.36
7524;BME280;3803;51.666;7.630;2022-07-23T01:17:07;101205.06;;;18.54;68.67
7524;BME280;3803;51.666;7.630;2022-07-23T01:17:28;101185.69;;;18.46;68.65
7524;BME280;3803;51.666;7.630;2022-07-23T01:17:49;101195.38;;;18.48;68.62
7524;BME280;3803;51.666;7.630;2022-07-23T01:18:10;101188.31;;;18.49;68.66
7524;BME280;3803;51.666;7.630;2022-07-23T01:18:33;101179.53;;;18.44;68.69
7524;BME280;3803;51.666;7.630;2022-07-23T01:18:54;101182.16;;;18.48;68.75
7524;BME280;3803;51.666;7.630;2022-07-23T01:19:16;101180.41;;;18.47;68.87
7524;BME280;3803;51.666;7.630;2022-07-23T01:19:37;101186.59;;;18.51;68.64
7524;BME280;3803;51.666;7.630;2022-07-23T01:19:57;101180.41;;;18.50;68.80
7524;BME280;3803;51.666;7.630;2022-07-23T01:20:19;101176.00;;;18.46;68.89
7524;BME280;3803;51.666;7.630;2022-07-23T01:20:41;101185.69;;;18.54;68.91
7524;BME280;3803;51.666;7.630;2022-07-23T01:21:02;101179.50;;;18.47;68.90
7524;BME280;3803;51.666;7.630;2022-07-23T01:21:24;101181.28;;;18.51;68.68
7524;BME280;3803;51.666;7.630;2022-07-23T01:21:47;101173.38;;;18.46;68.84
7524;BME280;3803;51.666;7.630;2022-07-23T01:22:09;101170.72;;;18.45;68.88
7524;BME280;3803;51.666;7.630;2022-07-23T01:22:30;101166.28;;;18.47;68.87
7524;BME280;3803;51.666;7.630;2022-07-23T01:22:52;101175.13;;;18.47;68.90
7524;BME280;3803;51.666;7.630;2022-07-23T01:23:13;101171.59;;;18.48;68.92
7524;BME280;3803;51.666;7.630;2022-07-23T01:23:40;101166.31;;;18.44;68.99
7524;BME280;3803;51.666;7.630;2022-07-23T01:24:01;101158.38;;;18.44;69.09
7524;BME280;3803;51.666;7.630;2022-07-23T01:24:22;101171.59;;;18.52;69.03
7524;BME280;3803;51.666;7.630;2022-07-23T01:24:51;101171.59;;;18.47;69.06
7524;BME280;3803;51.666;7.630;2022-07-23T01:25:16;101173.34;;;18.48;68.75
7524;BME280;3803;51.666;7.630;2022-07-23T01:25:52;101170.69;;;18.48;69.05
7524;BME280;3803;51.666;7.630;2022-07-23T01:26:13;101174.22;;;18.47;69.07
7524;BME280;3803;51.666;7.630;2022-07-23T01:26:37;101179.53;;;18.44;69.03
7524;BME280;3803;51.666;7.630;2022-07-23T01:26:58;101188.31;;;18.49;68.77
7524;BME280;3803;51.666;7.630;2022-07-23T01:27:19;101179.53;;;18.44;69.00
7524;BME280;3803;51.666;7.630;2022-07-23T01:27:42;101178.63;;;18.40;68.74
7524;BME280;3803;51.666;7.630;2022-07-23T01:28:03;101186.56;;;18.43;69.02
7524;BME280;3803;51.666;7.630;2022-07-23T01:28:24;101188.34;;;18.43;69.02
7524;BME280;3803;51.666;7.630;2022-07-23T01:28:45;101191.81;;;18.42;68.94
7524;BME280;3803;51.666;7.630;2022-07-23T01:29:05;101189.19;;;18.39;69.13
7524;BME280;3803;51.666;7.630;2022-07-23T01:29:26;101184.78;;;18.38;68.95
7524;BME280;3803;51.666;7.630;2022-07-23T01:29:48;101190.06;;;18.42;69.02
7524;BME280;3803;51.666;7.630;2022-07-23T01:30:13;101188.31;;;18.40;69.10
7524;BME280;3803;51.666;7.630;2022-07-23T01:30:34;101189.19;;;18.39;69.05
7524;BME280;3803;51.666;7.630;2022-07-23T01:30:58;101199.75;;;18.40;69.08
7524;BME280;3803;51.666;7.630;2022-07-23T01:31:19;101191.81;;;18.39;69.18
7524;BME280;3803;51.666;7.630;2022-07-23T01:31:40;101203.28;;;18.39;69.11
7524;BME280;3803;51.666;7.630;2022-07-23T01:32:01;101183.00;;;18.30;69.18
7524;BME280;3803;51.666;7.630;2022-07-23T01:32:22;101183.00;;;18.33;69.06
7524;BME280;3803;51.666;7.630;2022-07-23T01:32:45;101180.34;;;18.33;69.21
7524;BME280;3803;51.666;7.630;2022-07-23T01:33:07;101193.59;;;18.40;69.12
7524;BME280;3803;51.666;7.630;2022-07-23T01:33:28;101183.00;;;18.35;69.14
7524;BME280;3803;51.666;7.630;2022-07-23T01:33:49;101189.19;;;18.42;69.12
7524;BME280;3803;51.666;7.630;2022-07-23T01:34:11;101189.19;;;18.42;69.09
7524;BME280;3803;51.666;7.630;2022-07-23T01:34:31;101185.66;;;18.38;69.19
7524;BME280;3803;51.666;7.630;2022-07-23T01:34:52;101186.53;;;18.39;69.21
7524;BME280;3803;51.666;7.630;2022-07-23T01:35:13;101181.25;;;18.39;69.29
7524;BME280;3803;51.666;7.630;2022-07-23T01:35:34;101187.44;;;18.44;69.35
7524;BME280;3803;51.666;7.630;2022-07-23T01:35:58;101184.78;;;18.42;69.16
7524;BME280;3803;51.666;7.630;2022-07-23T01:36:20;101175.97;;;18.39;69.30
7524;BME280;3803;51.666;7.630;2022-07-23T01:36:40;101181.28;;;18.40;69.22
7524;BME280;3803;51.666;7.630;2022-07-23T01:37:02;101182.16;;;18.42;69.39
7524;BME280;3803;51.666;7.630;2022-07-23T01:37:23;101175.09;;;18.40;69.18
7524;BME280;3803;51.666;7.630;2022-07-23T01:37:44;101172.47;;;18.36;69.22
7524;BME280;3803;51.666;7.630;2022-07-23T01:38:06;101183.94;;;18.46;69.27
7524;BME280;3803;51.666;7.630;2022-07-23T01:38:27;101169.81;;;18.36;69.40
7524;BME280;3803;51.666;7.630;2022-07-23T01:38:49;101185.66;;;18.44;69.18
7524;BME280;3803;51.666;7.630;2022-07-23T01:39:10;101178.63;;;18.39;69.11
7524;BME280;3803;51.666;7.630;2022-07-23T01:39:31;101184.81;;;18.44;68.94
7524;BME280;3803;51.666;7.630;2022-07-23T01:39:51;101186.56;;;18.45;69.03
7524;BME280;3803;51.666;7.630;2022-07-23T01:40:12;101176.88;;;18.42;68.99
7524;BME280;3803;51.666;7.630;2022-07-23T01:40:33;101186.53;;;18.42;69.08
7524;BME280;3803;51.666;7.630;2022-07-23T01:40:54;101186.53;;;18.42;69.01
7524;BME280;3803;51.666;7.630;2022-07-23T01:41:15;101177.75;;;18.36;69.22
7524;BME280;3803;51.666;7.630;2022-07-23T01:41:36;101175.06;;;18.38;69.10
7524;BME280;3803;51.666;7.630;2022-07-23T01:41:57;101188.31;;;18.40;69.07
7524;BME280;3803;51.666;7.630;2022-07-23T01:42:19;101186.56;;;18.40;69.17
7524;BME280;3803;51.666;7.630;2022-07-23T01:42:40;101182.13;;;18.38;69.25
7524;BME280;3803;51.666;7.630;2022-07-23T01:43:02;101183.03;;;18.36;69.24
7524;BME280;3803;51.666;7.630;2022-07-23T01:43:24;101183.03;;;18.40;69.28
7524;BME280;3803;51.666;7.630;2022-07-23T01:43:45;101173.31;;;18.34;69.21
7524;BME280;3803;51.666;7.630;2022-07-23T01:44:06;101186.56;;;18.45;69.07
7524;BME280;3803;51.666;7.630;2022-07-23T01:44:27;101179.50;;;18.41;69.13
7524;BME280;3803;51.666;7.630;2022-07-23T01:44:48;101184.78;;;18.41;69.19
7524;BME280;3803;51.666;7.630;2022-07-23T01:45:13;101182.13;;;18.36;69.11
7524;BME280;3803;51.666;7.630;2022-07-23T01:45:38;101176.88;;;18.39;69.19
7524;BME280;3803;51.666;7.630;2022-07-23T01:45:59;101176.84;;;18.38;69.22
7524;BME280;3803;51.666;7.630;2022-07-23T01:46:24;101178.63;;;18.39;68.89
7524;BME280;3803;51.666;7.630;2022-07-23T01:46:45;101193.63;;;18.43;69.20
7524;BME280;3803;51.666;7.630;2022-07-23T01:47:06;101182.16;;;18.39;69.37
7524;BME280;3803;51.666;7.630;2022-07-23T01:47:27;101182.13;;;18.34;69.16
7524;BME280;3803;51.666;7.630;2022-07-23T01:47:49;101185.66;;;18.40;69.13
7524;BME280;3803;51.666;7.630;2022-07-23T01:48:11;101175.97;;;18.32;69.19
7524;BME280;3803;51.666;7.630;2022-07-23T01:48:35;101172.44;;;18.33;69.30
7524;BME280;3803;51.666;7.630;2022-07-23T01:49:14;101183.03;;;18.36;69.47
7524;BME280;3803;51.666;7.630;2022-07-23T01:49:54;101177.75;;;18.36;69.27
7524;BME280;3803;51.666;7.630;2022-07-23T01:50:26;101187.41;;;18.41;69.35
7524;BME280;3803;51.666;7.630;2022-07-23T01:51:07;101179.50;;;18.38;69.26
7524;BME280;3803;51.666;7.630;2022-07-23T01:51:35;101173.34;;;18.39;69.29
7524;BME280;3803;51.666;7.630;2022-07-23T01:52:01;101187.44;;;18.39;69.42
7524;BME280;3803;51.666;7.630;2022-07-23T01:52:33;101176.84;;;18.38;69.41
7524;BME280;3803;51.666;7.630;2022-07-23T01:52:54;101179.50;;;18.41;69.42
7524;BME280;3803;51.666;7.630;2022-07-23T01:53:15;101175.97;;;18.39;69.22
7524;BME280;3803;51.666;7.630;2022-07-23T01:53:36;101174.19;;;18.36;69.50
7524;BME280;3803;51.666;7.630;2022-07-23T01:53:57;101183.03;;;18.40;69.31
7524;BME280;3803;51.666;7.630;2022-07-23T01:54:18;101183.03;;;18.40;69.33
7524;BME280;3803;51.666;7.630;2022-07-23T01:54:38;101165.38;;;18.32;69.41
7524;BME280;3803;51.666;7.630;2022-07-23T01:55:01;101183.03;;;18.40;69.18
7524;BME280;3803;51.666;7.630;2022-07-23T01:55:21;101178.59;;;18.37;69.33
7524;BME280;3803;51.666;7.630;2022-07-23T01:55:44;101180.38;;;18.38;69.21
7524;BME280;3803;51.666;7.630;2022-07-23T01:56:05;101183.03;;;18.36;69.42
7524;BME280;3803;51.666;7.630;2022-07-23T01:56:26;101180.38;;;18.40;69.52
7524;BME280;3803;51.666;7.630;2022-07-23T01:56:47;101189.19;;;18.40;69.25
7524;BME280;3803;51.666;7.630;2022-07-23T01:57:08;101181.25;;;18.35;69.43
7524;BME280;3803;51.666;7.630;2022-07-23T01:57:28;101183.88;;;18.37;69.48
7524;BME280;3803;51.666;7.630;2022-07-23T01:57:49;101175.97;;;18.35;69.34
7524;BME280;3803;51.666;7.630;2022-07-23T01:58:14;101190.94;;;18.36;69.27
7524;BME280;3803;51.666;7.630;2022-07-23T01:58:34;101180.38;;;18.32;69.26
7524;BME280;3803;51.666;7.630;2022-07-23T01:58:55;101189.19;;;18.39;69.24
7524;BME280;3803;51.666;7.630;2022-07-23T01:59:17;101183.91;;;18.34;69.60
7524;BME280;3803;51.666;7.630;2022-07-23T01:59:37;101183.03;;;18.32;69.37
7524;BME280;3803;51.666;7.630;2022-07-23T02:00:00;101175.97;;;18.32;69.30
7524;BME280;3803;51.666;7.630;2022-07-23T02:00:20;101168.03;;;18.28;69.47
7524;BME280;3803;51.666;7.630;2022-07-23T02:00:43;101167.13;;;18.24;69.25
7524;BME280;3803;51.666;7.630;2022-07-23T02:01:04;101171.53;;;18.27;69.30
7524;BME280;3803;51.666;7.630;2022-07-23T02:01:25;101176.81;;;18.30;69.48
7524;BME280;3803;51.666;7.630;2022-07-23T02:01:46;101170.69;;;18.29;69.44
7524;BME280;3803;51.666;7.630;2022-07-23T02:02:07;101176.84;;;18.31;69.41